Time;durP1;ratioP1;P1;durP2;ratioP2;P2;SDS_P1;SDS_P2;PMS_P1;PMS_P2;Temp;Humidity;BMP_temperature;BMP_pressure;BME280_temperature;BME280_humidity;BME280_pressure;Samples;Min_cycle;Max_cycle;Signal;HPM_P1;HPM_P2
2021/01/15 00:01:22;;;;;;;21.50;10.80;;;;;;;-5.36;74.95;100187.06;1752122;81;25773;-46
2021/01/15 00:03:49;;;;;;;19.57;10.93;;;;;;;-5.40;74.99;100185.34;1754470;81;25954;-44
2021/01/15 00:06:24;;;;;;;21.50;11.48;;;;;;;-5.41;75.09;100187.70;1755783;81;25734;-46
2021/01/15 00:08:53;;;;;;;19.27;10.08;;;;;;;-5.43;74.92;100192.38;1755856;81;25914;-45
2021/01/15 00:11:30;;;;;;;22.62;11.22;;;;;;;-5.48;74.79;100200.89;1722564;83;25814;-47
2021/01/15 00:14:06;;;;;;;19.47;10.20;;;;;;;-5.46;74.81;100205.44;1885549;75;28583;-49
2021/01/15 00:16:34;;;;;;;18.57;10.68;;;;;;;-5.56;74.97;100212.16;1856218;77;25699;-47
2021/01/15 00:19:02;;;;;;;18.00;9.65;;;;;;;-5.58;74.94;100218.95;1856144;77;27393;-50
2021/01/15 00:21:35;;;;;;;;;;;;;;;-5.63;74.70;100210.84;1858839;77;26389;-46
2021/01/15 00:24:06;;;;;;;22.07;10.45;;;;;;;-5.68;74.61;100219.36;1856046;77;25735;-47
2021/01/15 00:26:34;;;;;;;19.67;10.55;;;;;;;-5.74;74.41;100214.09;1856300;77;26430;-49
2021/01/15 00:29:01;;;;;;;25.80;11.68;;;;;;;-5.82;74.39;100196.16;1856059;76;25723;-48
2021/01/15 00:31:34;;;;;;;20.27;10.15;;;;;;;-5.89;74.43;100201.11;1856125;77;27240;-48
2021/01/15 00:34:01;;;;;;;19.48;10.50;;;;;;;-5.93;74.40;100204.66;1856213;77;25812;-47
2021/01/15 00:36:28;;;;;;;22.75;11.20;;;;;;;-6.00;74.26;100210.47;1855988;76;25637;-48
2021/01/15 00:38:55;;;;;;;20.85;11.73;;;;;;;-6.06;74.27;100214.73;1856153;77;25698;-49
2021/01/15 00:41:22;;;;;;;25.50;12.37;;;;;;;-6.12;74.39;100223.42;1812929;77;27233;-44
2021/01/15 00:43:49;;;;;;;21.85;10.93;;;;;;;-6.17;74.35;100228.99;1781730;80;26660;-45
2021/01/15 00:46:27;;;;;;;20.27;10.53;;;;;;;-6.23;74.36;100235.84;1781584;80;26025;-47
2021/01/15 00:48:46;;;;;;;24.27;12.20;;;;;;;-6.31;74.31;100232.91;1770582;78;25868;-46
2021/01/15 00:51:13;;;;;;;26.33;11.60;;;;;;;-6.43;74.00;100235.31;1768049;79;26263;-43
2021/01/15 00:53:40;;;;;;;19.50;10.23;;;;;;;-6.52;74.02;100235.68;1768166;79;25822;-45
2021/01/15 00:56:06;;;;;;;21.85;11.05;;;;;;;-6.60;74.07;100241.95;1768520;79;27121;-47
2021/01/15 00:58:34;;;;;;;19.95;10.68;;;;;;;-6.66;74.20;100242.20;1768279;79;26124;-43
2021/01/15 01:01:00;;;;;;;23.45;11.95;;;;;;;-6.73;74.12;100241.89;1768178;79;26025;-43
2021/01/15 01:03:27;;;;;;;20.70;10.93;;;;;;;-6.81;74.16;100238.91;1768330;79;25748;-46
2021/01/15 01:05:54;;;;;;;20.15;11.15;;;;;;;-6.86;74.21;100246.58;1768372;79;25293;-45
2021/01/15 01:08:21;;;;;;;21.15;11.20;;;;;;;-6.93;74.42;100238.66;1767996;79;26742;-46
2021/01/15 01:10:48;;;;;;;22.13;11.40;;;;;;;-6.99;74.43;100232.88;1768251;79;25726;-45
2021/01/15 01:13:15;;;;;;;18.30;10.48;;;;;;;-7.04;74.48;100239.22;1768249;79;25683;-45
2021/01/15 01:15:41;;;;;;;21.37;11.25;;;;;;;-7.06;74.67;100246.50;1768130;79;25752;-44
2021/01/15 01:18:09;;;;;;;21.60;10.03;;;;;;;-7.12;74.60;100236.75;1768327;81;25944;-42
2021/01/15 01:20:35;;;;;;;22.37;11.57;;;;;;;-7.17;74.56;100239.47;1768304;79;26518;-46
2021/01/15 01:23:02;;;;;;;19.45;10.28;;;;;;;-7.22;74.54;100238.41;1768178;79;25731;-48
2021/01/15 01:25:29;;;;;;;19.62;10.15;;;;;;;-7.26;74.43;100240.61;1768377;80;25687;-44
2021/01/15 01:27:55;;;;;;;21.90;11.38;;;;;;;-7.35;74.30;100236.52;1767499;81;25631;-44
2021/01/15 01:30:23;;;;;;;25.45;11.28;;;;;;;-7.42;74.35;100245.67;1769678;81;25717;-44
2021/01/15 01:32:50;;;;;;;17.30;10.03;;;;;;;-7.46;74.56;100250.98;1769578;80;26729;-44
2021/01/15 01:35:17;;;;;;;17.27;9.10;;;;;;;-7.50;74.61;100249.75;1769593;81;25699;-45
2021/01/15 01:37:44;;;;;;;18.62;9.18;;;;;;;-7.54;74.69;100243.27;1769651;81;25481;-45
2021/01/15 01:40:13;;;;;;;18.40;9.08;;;;;;;-7.55;74.73;100245.58;1769611;81;25665;-45
2021/01/15 01:42:39;;;;;;;14.18;8.13;;;;;;;-7.58;74.85;100249.89;1769903;81;25593;-47
2021/01/15 01:45:08;;;;;;;18.70;8.88;;;;;;;-7.63;74.77;100257.02;1769688;80;26166;-44
2021/01/15 01:47:35;;;;;;;16.10;8.60;;;;;;;-7.64;74.90;100260.67;1769604;81;25659;-45
2021/01/15 01:50:04;;;;;;;18.90;8.48;;;;;;;-7.65;75.02;100265.60;1769631;81;25631;-45
2021/01/15 01:52:31;;;;;;;17.00;8.18;;;;;;;-7.67;75.07;100270.23;1769821;80;25571;-44
2021/01/15 01:54:59;;;;;;;16.15;8.08;;;;;;;-7.67;75.37;100272.87;1769669;81;25666;-45
2021/01/15 01:57:26;;;;;;;23.12;8.65;;;;;;;-7.67;75.43;100266.30;1769501;81;26153;-43
2021/01/15 01:59:53;;;;;;;19.20;9.23;;;;;;;-7.65;75.51;100270.05;1769649;81;25663;-43
2021/01/15 02:02:20;;;;;;;22.20;10.18;;;;;;;-7.62;75.69;100270.48;1769664;80;25591;-44
2021/01/15 02:04:47;;;;;;;20.05;9.35;;;;;;;-7.59;75.75;100272.73;1769716;81;25635;-45
2021/01/15 02:07:14;;;;;;;17.50;9.30;;;;;;;-7.54;75.88;100269.03;1769732;80;25695;-47
2021/01/15 02:10:04;;;;;;;18.00;9.05;;;;;;;-7.48;75.87;100266.64;1769648;81;25974;-47
2021/01/15 02:12:58;;;;;;;16.45;8.15;;;;;;;-7.45;75.76;100273.64;1771431;79;25631;-43
2021/01/15 02:15:45;;;;;;;19.02;8.63;;;;;;;-7.41;75.82;100280.64;1797122;79;25638;-45
2021/01/15 02:18:26;;;;;;;17.40;9.30;;;;;;;-7.37;75.79;100278.77;1797247;79;25559;-45
2021/01/15 02:21:07;;;;;;;17.32;8.55;;;;;;;-7.34;75.67;100290.69;1797456;79;25768;-46
2021/01/15 02:23:42;;;;;;;18.85;8.00;;;;;;;-7.29;75.63;100286.19;1796228;79;26263;-43
2021/01/15 02:26:32;;;;;;;18.50;9.45;;;;;;;-7.26;75.60;100288.44;1797212;79;25662;-44
2021/01/15 02:29:19;;;;;;;19.52;7.75;;;;;;;-7.23;75.69;100288.86;1797405;79;25626;-45
2021/01/15 02:32:06;;;;;;;22.45;10.08;;;;;;;-7.22;75.70;100287.03;1797408;79;25587;-43
2021/01/15 02:34:42;;;;;;;20.30;8.05;;;;;;;-7.21;75.62;100288.16;1797081;79;25619;-44
2021/01/15 02:37:50;;;;;;;22.73;9.55;;;;;;;-7.16;75.74;100298.11;1797135;79;25701;-43
2021/01/15 02:40:26;;;;;;;18.30;8.88;;;;;;;-7.13;75.69;100300.36;1797279;79;25949;-43
2021/01/15 02:42:55;;;;;;;17.25;7.78;;;;;;;-7.08;75.95;100298.45;1796615;79;25634;-43
2021/01/15 02:45:23;;;;;;;19.77;9.15;;;;;;;-7.05;75.94;100298.88;1797580;79;25624;-45
2021/01/15 02:47:53;;;;;;;16.87;8.38;;;;;;;-7.04;75.74;100295.76;1797261;79;25713;-45
2021/01/15 02:50:24;;;;;;;17.87;8.85;;;;;;;-7.00;75.75;100291.73;1797346;79;25843;-43
2021/01/15 02:52:51;;;;;;;24.00;10.32;;;;;;;-7.02;75.55;100297.17;1797310;79;25619;-44
2021/01/15 02:55:18;;;;;;;20.82;9.73;;;;;;;-6.99;75.73;100297.30;1797249;79;25705;-43
2021/01/15 02:57:45;;;;;;;23.73;9.93;;;;;;;-6.97;75.67;100295.29;1797252;79;25601;-44
2021/01/15 03:00:16;;;;;;;21.82;10.28;;;;;;;-6.98;75.83;100291.86;1797313;79;25646;-47
2021/01/15 03:03:21;;;;;;;16.85;8.83;;;;;;;-6.95;75.80;100290.16;1797306;79;26732;-45
2021/01/15 03:06:05;;;;;;;17.35;9.23;;;;;;;-6.95;75.78;100298.53;1797271;79;25692;-47
2021/01/15 03:08:34;;;;;;;25.72;9.63;;;;;;;-6.96;75.61;100292.47;1797270;79;25578;-44
2021/01/15 03:11:05;;;;;;;18.00;9.20;;;;;;;-6.99;75.73;100299.42;1797425;79;25642;-44
2021/01/15 03:13:34;;;;;;;17.80;8.95;;;;;;;-6.98;75.90;100293.17;1797146;79;25800;-42
2021/01/15 03:16:04;;;;;;;17.07;9.48;;;;;;;-6.99;75.92;100294.67;1797447;79;25768;-43
2021/01/15 03:18:34;;;;;;;17.80;8.93;;;;;;;-7.01;75.70;100296.18;1797426;79;25715;-44
2021/01/15 03:21:02;;;;;;;16.70;8.45;;;;;;;-7.00;75.68;100292.55;1797270;79;25584;-46
2021/01/15 03:23:36;;;;;;;20.45;9.55;;;;;;;-7.00;75.78;100292.55;1797208;79;25725;-43
2021/01/15 03:26:03;;;;;;;15.80;8.48;;;;;;;-6.99;75.83;100286.27;1797330;79;25696;-44
2021/01/15 03:28:30;;;;;;;16.90;8.35;;;;;;;-6.96;75.79;100288.52;1797134;79;25699;-42
2021/01/15 03:30:56;;;;;;;20.52;8.55;;;;;;;-6.92;75.82;100287.63;1797280;79;25571;-45
2021/01/15 03:33:24;;;;;;;16.95;8.25;;;;;;;-6.90;76.03;100288.75;1797202;79;25651;-44
2021/01/15 03:35:51;;;;;;;21.27;9.28;;;;;;;-6.89;75.91;100296.97;1797373;79;25604;-45
2021/01/15 03:38:17;;;;;;;19.55;8.83;;;;;;;-6.89;75.99;100296.45;1797313;79;25582;-43
2021/01/15 03:40:47;;;;;;;20.60;8.25;;;;;;;-6.87;76.04;100292.31;1797410;79;25695;-43
2021/01/15 03:43:18;;;;;;;17.40;8.53;;;;;;;-6.89;76.03;100291.70;1797234;79;25698;-45
2021/01/15 03:45:47;;;;;;;16.52;8.68;;;;;;;-6.86;76.03;100293.92;1797094;79;25646;-43
2021/01/15 03:48:15;;;;;;;16.37;8.48;;;;;;;-6.87;76.02;100293.63;1797323;79;25639;-44
2021/01/15 03:50:43;;;;;;;18.60;9.25;;;;;;;-6.90;75.90;100288.75;1797298;79;25678;-41
2021/01/15 03:53:13;;;;;;;18.32;9.38;;;;;;;-6.92;75.82;100287.63;1797233;79;26841;-43
2021/01/15 03:55:40;;;;;;;19.27;8.28;;;;;;;-6.93;75.84;100285.99;1797312;79;25548;-43
2021/01/15 03:58:06;;;;;;;18.82;8.80;;;;;;;-6.98;75.92;100281.34;1797176;79;25661;-45
2021/01/15 04:00:33;;;;;;;17.15;8.63;;;;;;;-6.97;75.90;100290.03;1797190;79;25653;-45
2021/01/15 04:03:00;;;;;;;17.07;8.23;;;;;;;-6.96;75.96;100294.30;1797269;79;25635;-43
2021/01/15 04:05:27;;;;;;;19.45;9.15;;;;;;;-6.96;76.13;100299.55;1797231;79;26219;-42
2021/01/15 04:07:54;;;;;;;19.87;9.35;;;;;;;-6.95;76.13;100302.47;1797190;79;25582;-41
2021/01/15 04:10:21;;;;;;;21.52;9.40;;;;;;;-6.95;76.07;100297.22;1797209;79;25706;-43
2021/01/15 04:12:48;;;;;;;19.82;9.00;;;;;;;-6.96;76.06;100299.05;1797032;79;25634;-42
2021/01/15 04:15:17;;;;;;;19.25;9.43;;;;;;;-6.96;76.06;100302.19;1771384;79;25702;-44
2021/01/15 04:17:44;;;;;;;14.18;7.85;;;;;;;-6.94;76.19;100305.42;1769353;81;25709;-43
2021/01/15 04:20:14;;;;;;;22.65;9.40;;;;;;;-6.93;76.06;100306.23;1769464;81;25697;-44
2021/01/15 04:22:46;;;;;;;18.02;8.53;;;;;;;-6.94;75.97;100315.95;1769657;81;25583;-43
2021/01/15 04:25:15;;;;;;;21.37;8.50;;;;;;;-6.93;75.94;100308.86;1769273;81;25571;-41
2021/01/15 04:27:43;;;;;;;21.60;9.13;;;;;;;-6.95;75.96;100303.31;1769746;81;26276;-42
2021/01/15 04:30:13;;;;;;;21.05;8.98;;;;;;;-6.94;76.19;100314.63;1769491;81;25772;-43
2021/01/15 04:32:47;;;;;;;20.55;9.18;;;;;;;-6.95;76.20;100302.47;1769323;81;26183;-45
2021/01/15 04:35:16;;;;;;;21.45;9.18;;;;;;;-6.95;76.08;100304.63;1769416;81;25605;-44
2021/01/15 04:37:43;;;;;;;19.30;8.93;;;;;;;-6.96;76.02;100297.73;1769631;81;25615;-44
2021/01/15 04:40:11;;;;;;;20.50;9.38;;;;;;;-6.94;76.12;100304.11;1769538;81;25604;-48
2021/01/15 04:42:44;;;;;;;24.23;10.75;;;;;;;-6.96;76.03;100291.16;1769458;81;25786;-40
2021/01/15 04:45:14;;;;;;;24.23;11.65;;;;;;;-6.95;76.13;100285.38;1769501;80;25717;-45
2021/01/15 04:47:43;;;;;;;;;;;;;;;-6.95;76.18;100291.48;1772125;81;25630;-40
2021/01/15 04:50:16;;;;;;;17.60;9.53;;;;;;;-6.96;76.06;100302.98;1769624;80;25641;-43
2021/01/15 04:52:52;;;;;;;22.77;9.90;;;;;;;-6.97;76.07;100297.92;1769566;81;25647;-41
2021/01/15 04:55:23;;;;;;;17.23;8.93;;;;;;;-6.96;76.14;100300.36;1769536;81;25764;-41
2021/01/15 04:57:52;;;;;;;20.23;9.63;;;;;;;-6.96;76.25;100302.98;1769455;81;25675;-43
2021/01/15 05:00:23;;;;;;;20.20;9.13;;;;;;;-6.93;76.26;100319.38;1769607;81;25619;-43
2021/01/15 05:02:51;;;;;;;24.92;10.13;;;;;;;-6.89;76.62;100339.05;1769305;81;25737;-44
2021/01/15 05:05:27;;;;;;;24.02;10.28;;;;;;;-6.87;76.33;100317.30;1769647;81;25620;-43
2021/01/15 05:08:15;;;;;;;20.52;9.33;;;;;;;-6.86;76.47;100322.37;1769766;81;26585;-43
2021/01/15 05:10:48;;;;;;;15.38;8.70;;;;;;;-6.82;76.46;100376.72;1763061;80;25749;-43
2021/01/15 05:13:17;;;;;;;20.02;8.93;;;;;;;-6.80;76.32;100320.78;1763035;81;26269;-44
2021/01/15 05:15:47;;;;;;;20.45;8.80;;;;;;;-6.83;76.22;100349.58;1762974;80;25699;-45
2021/01/15 05:18:16;;;;;;;;;;;;;;;-6.79;76.23;100339.00;1765723;81;25676;-43
2021/01/15 05:20:51;;;;;;;18.57;8.87;;;;;;;-6.70;76.26;100334.39;1847927;76;29944;-43
2021/01/15 05:23:19;;;;;;;22.58;9.05;;;;;;;-6.77;76.22;100339.61;1818095;78;25544;-44
2021/01/15 05:25:48;;;;;;;16.95;9.03;;;;;;;-6.77;76.26;100334.35;1817957;78;27058;-44
2021/01/15 05:28:18;;;;;;;22.67;9.58;;;;;;;-6.74;76.28;100328.39;1817892;78;25763;-43
2021/01/15 05:30:59;;;;;;;20.12;9.58;;;;;;;-6.71;76.25;100349.05;1817949;78;25675;-43
2021/01/15 05:33:26;;;;;;;17.92;9.63;;;;;;;-6.71;76.04;100351.17;1817856;78;25651;-43
2021/01/15 05:35:53;;;;;;;19.57;8.75;;;;;;;-6.72;76.03;100344.78;1817990;78;25603;-43
2021/01/15 05:38:23;;;;;;;24.10;10.18;;;;;;;-6.73;76.05;100349.24;1817982;78;26656;-43
2021/01/15 05:40:56;;;;;;;20.50;9.40;;;;;;;-6.73;76.13;100333.45;1817833;78;25575;-46
2021/01/15 05:43:32;;;;;;;22.02;8.85;;;;;;;-6.74;76.14;100334.97;1817966;78;25710;-45
2021/01/15 05:46:11;;;;;;;21.93;9.65;;;;;;;-6.73;76.24;100336.09;1817956;78;25622;-42
2021/01/15 05:48:48;;;;;;;23.30;10.32;;;;;;;-6.71;76.27;100334.58;1817920;78;25607;-42
2021/01/15 05:51:31;;;;;;;26.37;10.10;;;;;;;-6.69;76.16;100353.61;1817392;78;25680;-46
2021/01/15 05:53:59;;;;;;;19.10;9.35;;;;;;;-6.70;76.19;100343.60;1817728;78;25583;-40
2021/01/15 05:56:40;;;;;;;18.92;9.18;;;;;;;-6.70;76.12;100338.34;1818030;78;25634;-45
2021/01/15 05:59:16;;;;;;;21.20;10.30;;;;;;;-6.71;76.00;100348.54;1817941;78;25635;-45
2021/01/15 06:01:58;;;;;;;21.65;10.25;;;;;;;-6.72;76.11;100344.78;1817926;78;25691;-42
2021/01/15 06:04:40;;;;;;;22.07;9.58;;;;;;;-6.71;76.03;100335.89;1817938;78;25692;-45
2021/01/15 06:07:16;;;;;;;27.22;11.35;;;;;;;-6.74;75.90;100334.97;1817940;78;25692;-44
2021/01/15 06:09:48;;;;;;;22.32;10.58;;;;;;;-6.74;76.09;100340.23;1817793;78;25649;-46
2021/01/15 06:12:20;;;;;;;23.25;10.65;;;;;;;-6.76;76.25;100342.56;1817905;78;25595;-43
2021/01/15 06:14:57;;;;;;;24.65;10.98;;;;;;;-6.74;76.17;100366.53;1817748;78;25591;-43
2021/01/15 06:17:22;;;;;;;20.77;9.68;;;;;;;-6.73;76.22;100383.45;1817642;78;26401;-42
2021/01/15 06:19:54;;;;;;;21.70;9.98;;;;;;;-6.70;76.21;100364.64;1817697;78;25855;-45
2021/01/15 06:22:47;;;;;;;18.87;9.50;;;;;;;-6.71;76.13;100365.64;1817907;78;25567;-44
2021/01/15 06:25:33;;;;;;;21.30;9.60;;;;;;;-6.73;75.96;100373.44;1817983;78;25638;-42
2021/01/15 06:28:04;;;;;;;32.30;14.47;;;;;;;-6.75;76.05;100364.41;1817963;78;25613;-44
2021/01/15 06:30:34;;;;;;;26.02;12.35;;;;;;;-6.73;76.22;100372.11;1817751;78;26720;-40
2021/01/15 06:33:14;;;;;;;33.98;14.00;;;;;;;-6.75;76.20;100356.52;1817215;78;25643;-39
2021/01/15 06:35:47;;;;;;;31.20;13.98;;;;;;;-6.75;76.20;100363.10;1817327;78;25615;-42
2021/01/15 06:38:19;;;;;;;29.95;13.58;;;;;;;-6.74;76.23;100361.27;1817213;78;25565;-41
2021/01/15 06:40:51;;;;;;;25.15;12.23;;;;;;;-6.71;76.41;100374.05;1817395;78;25692;-43
2021/01/15 06:43:29;;;;;;;25.85;11.50;;;;;;;-6.69;76.31;100354.92;1817212;78;26048;-44
2021/01/15 06:46:03;;;;;;;34.05;13.15;;;;;;;-6.65;76.42;100364.08;1817033;78;25622;-43
2021/01/15 06:48:39;;;;;;;35.95;15.25;;;;;;;-6.63;76.33;100364.17;1816903;78;25615;-40
2021/01/15 06:51:09;;;;;;;32.53;12.78;;;;;;;-6.60;76.45;100372.20;1817252;78;26326;-45
2021/01/15 06:53:41;;;;;;;29.67;11.15;;;;;;;-6.58;76.41;100384.14;1817249;78;25551;-44
2021/01/15 06:56:14;;;;;;;27.32;12.10;;;;;;;-6.55;76.33;100389.53;1817297;78;25765;-41
2021/01/15 06:58:43;;;;;;;25.55;11.03;;;;;;;-6.54;76.19;100389.02;1816699;78;26075;-42
2021/01/15 07:01:38;;;;;;;26.17;10.93;;;;;;;-6.52;76.11;100396.22;1817268;78;25569;-48
2021/01/15 07:04:27;;;;;;;26.48;12.07;;;;;;;-6.52;76.24;100377.31;1807468;78;25600;-44
2021/01/15 07:07:13;;;;;;;28.70;10.93;;;;;;;-6.52;76.21;100381.73;1817452;78;25614;-42
2021/01/15 07:09:43;;;;;;;33.95;14.35;;;;;;;-6.48;76.38;100384.31;1817305;78;27039;-39
2021/01/15 07:12:19;;;;;;;28.77;13.80;;;;;;;-6.50;76.03;100383.19;1817165;78;25654;-39
2021/01/15 07:14:57;;;;;;;24.15;11.33;;;;;;;-6.51;76.10;100377.60;1817336;78;25642;-41
2021/01/15 07:17:38;;;;;;;26.97;12.45;;;;;;;-6.53;75.98;100369.09;1817360;78;25598;-45
2021/01/15 07:20:12;;;;;;;28.90;14.15;;;;;;;-6.48;76.35;100368.52;1788353;78;25610;-49
2021/01/15 07:22:57;;;;;;;27.80;13.10;;;;;;;-6.43;76.48;100378.77;1821083;78;26631;-52
2021/01/15 07:25:23;;;;;;;28.60;12.78;;;;;;;-6.42;76.25;100372.98;1820407;78;25626;-48
2021/01/15 07:27:51;;;;;;;29.35;14.50;;;;;;;-6.39;76.23;100373.92;1820777;78;26037;-50
2021/01/15 07:30:28;;;;;;;31.80;13.62;;;;;;;-6.39;76.29;100374.72;1819924;78;25582;-46
2021/01/15 07:32:58;;;;;;;28.00;13.58;;;;;;;-6.31;76.61;100382.17;1820130;78;25643;-48
2021/01/15 07:35:27;;;;;;;28.27;13.55;;;;;;;-6.28;76.36;100381.75;1798597;77;26553;-44
2021/01/15 07:38:14;;;;;;;29.82;12.82;;;;;;;-6.31;76.07;100374.27;1792103;78;25654;-40
2021/01/15 07:40:43;;;;;;;32.25;14.73;;;;;;;-6.31;76.12;100373.75;1787644;80;25699;-46
2021/01/15 07:43:31;;;;;;;;;;;;;;;-6.28;76.41;100370.73;1753608;81;25438;-49
2021/01/15 07:46:00;;;;;;;34.00;14.60;;;;;;;-6.27;76.32;100372.34;1751631;81;25571;-58
2021/01/15 07:48:27;;;;;;;29.27;13.30;;;;;;;-6.23;76.38;100377.55;1751612;80;25791;-52
2021/01/15 07:50:54;;;;;;;26.27;12.73;;;;;;;-6.19;76.26;100368.75;1751562;81;26329;-50
2021/01/15 07:53:38;;;;;;;27.27;12.70;;;;;;;-6.12;76.23;100371.41;1753058;80;25867;-49
2021/01/15 07:56:05;;;;;;;29.10;12.58;;;;;;;-6.11;75.87;100365.95;1773868;80;25733;-52
2021/01/15 07:58:45;;;;;;;29.63;14.63;;;;;;;-6.07;75.99;100369.80;1763132;81;25619;-57
2021/01/15 08:01:16;;;;;;;31.00;15.28;;;;;;;-6.01;75.85;100363.75;1761910;81;32475;-51
2021/01/15 08:03:57;;;;;;;25.60;12.37;;;;;;;-5.94;76.25;100372.13;1743070;79;25599;-48
2021/01/15 08:06:25;;;;;;;25.65;12.35;;;;;;;-5.89;75.90;100367.08;1750295;81;25660;-57
2021/01/15 08:09:10;;;;;;;28.42;12.82;;;;;;;-5.83;75.90;100362.34;1762837;81;25718;-57
2021/01/15 08:11:38;;;;;;;30.43;14.18;;;;;;;-5.75;76.14;100364.00;1763265;81;25719;-49
2021/01/15 08:14:17;;;;;;;28.10;13.15;;;;;;;-5.67;76.34;100367.25;1763057;81;26663;-53
2021/01/15 08:16:47;;;;;;;25.30;12.63;;;;;;;-5.58;75.85;100360.45;1763041;81;25627;-54
2021/01/15 08:19:21;;;;;;;26.40;12.78;;;;;;;-5.55;75.81;100364.84;1763153;81;25663;-40
2021/01/15 08:21:49;;;;;;;30.80;14.25;;;;;;;-5.49;75.84;100364.53;1762458;80;25559;-55
2021/01/15 08:24:22;;;;;;;28.73;13.15;;;;;;;-5.44;75.49;100364.22;1762511;81;25635;-55
2021/01/15 08:26:55;;;;;;;32.30;13.62;;;;;;;-5.38;75.73;100361.30;1762577;81;28610;-54
2021/01/15 08:29:25;;;;;;;29.25;13.65;;;;;;;-5.32;75.48;100363.63;1762501;81;25595;-48
2021/01/15 08:31:58;;;;;;;29.70;12.68;;;;;;;-5.26;75.46;100366.79;1762595;81;25585;-54
2021/01/15 08:34:34;;;;;;;29.02;12.60;;;;;;;-5.21;75.41;100366.99;1762419;81;26306;-55
2021/01/15 08:37:05;;;;;;;29.18;13.28;;;;;;;-5.12;75.42;100366.28;1762567;81;25730;-57
2021/01/15 08:39:50;;;;;;;27.73;13.55;;;;;;;-5.09;75.05;100379.87;1761957;81;26370;-53
2021/01/15 08:42:18;;;;;;;28.25;12.90;;;;;;;-5.04;74.64;100370.52;1762493;81;25576;-53
2021/01/15 08:44:49;;;;;;;32.58;13.70;;;;;;;-5.00;74.76;100377.03;1762576;81;25659;-55
2021/01/15 08:47:20;;;;;;;20.02;9.30;;;;;;;-4.93;75.16;100367.27;1762469;81;25663;-51
2021/01/15 08:49:57;;;;;;;22.82;10.05;;;;;;;-4.84;74.37;100368.67;1762548;81;25600;-56
2021/01/15 08:52:32;;;;;;;22.52;9.93;;;;;;;-4.83;74.26;100368.98;1762541;81;25773;-47
2021/01/15 08:54:59;;;;;;;23.52;9.33;;;;;;;-4.77;73.58;100362.86;1762288;81;25655;-55
2021/01/15 08:57:28;;;;;;;20.85;10.85;;;;;;;-4.69;73.93;100369.77;1762621;81;25635;-56
2021/01/15 08:59:56;;;;;;;25.20;10.88;;;;;;;-4.62;72.96;100375.03;1762441;81;25704;-52
2021/01/15 09:02:23;;;;;;;21.30;10.48;;;;;;;-4.61;73.50;100364.79;1762477;81;25598;-48
2021/01/15 09:04:51;;;;;;;21.68;10.63;;;;;;;-4.54;73.48;100363.73;1762547;81;26929;-53
2021/01/15 09:07:20;;;;;;;17.15;9.30;;;;;;;-4.53;73.39;100362.73;1762458;81;25630;-56
2021/01/15 09:09:48;;;;;;;15.65;7.67;;;;;;;-4.46;73.30;100361.88;1762645;81;25609;-58
2021/01/15 09:12:17;;;;;;;15.53;7.85;;;;;;;-4.46;72.63;100356.60;1735805;81;25670;-56
2021/01/15 09:14:49;;;;;;;20.10;8.35;;;;;;;-4.51;71.76;100356.73;1732267;82;25906;-54
2021/01/15 09:17:16;;;;;;;19.42;9.28;;;;;;;-4.47;72.58;100357.12;1732174;82;26168;-53
2021/01/15 09:19:43;;;;;;;16.77;8.68;;;;;;;-4.34;73.23;100368.16;1732055;82;25683;-52
2021/01/15 09:22:17;;;;;;;21.73;8.40;;;;;;;-4.22;72.88;100367.80;1739141;81;25734;-55
2021/01/15 09:24:43;;;;;;;17.15;8.15;;;;;;;-4.12;72.80;100363.38;1756878;81;25638;-49
2021/01/15 09:27:10;;;;;;;18.27;8.45;;;;;;;-4.02;72.60;100365.08;1756742;81;25655;-53
2021/01/15 09:29:40;;;;;;;17.42;7.55;;;;;;;-3.97;71.64;100363.94;1755983;81;26513;-55
2021/01/15 09:32:07;;;;;;;19.02;9.53;;;;;;;-3.92;71.39;100359.33;1755958;81;25944;-53
2021/01/15 09:34:34;;;;;;;18.87;8.43;;;;;;;-3.87;71.87;100364.78;1756051;81;25677;-49
2021/01/15 09:37:01;;;;;;;19.70;9.28;;;;;;;-3.80;71.41;100356.33;1756075;81;25698;-47
2021/01/15 09:39:28;;;;;;;20.72;9.18;;;;;;;-3.76;71.36;100356.19;1736119;80;25676;-54
2021/01/15 09:41:58;;;;;;;14.75;7.67;;;;;;;-3.74;70.45;100352.02;1725838;82;26158;-54
2021/01/15 09:44:28;;;;;;;18.85;9.78;;;;;;;-3.73;70.34;100344.37;1725989;83;25580;-53
2021/01/15 09:47:03;;;;;;;19.77;8.58;;;;;;;-3.73;70.41;100341.72;1725903;83;25648;-51
2021/01/15 09:49:31;;;;;;;18.00;7.75;;;;;;;-3.69;70.38;100342.94;1725701;82;25708;-50
2021/01/15 09:51:58;;;;;;;20.17;9.80;;;;;;;-3.66;70.36;100354.41;1725942;82;25753;-48
2021/01/15 09:54:25;;;;;;;18.07;7.97;;;;;;;-3.60;70.06;100350.09;1725783;82;25793;-48
2021/01/15 09:56:52;;;;;;;17.90;8.78;;;;;;;-3.58;70.40;100342.75;1725798;82;26012;-46
2021/01/15 09:59:20;;;;;;;17.27;7.72;;;;;;;-3.53;70.51;100338.15;1725618;82;25739;-55
2021/01/15 10:01:48;;;;;;;16.37;8.23;;;;;;;-3.49;70.30;100332.23;1726040;83;25800;-50
2021/01/15 10:04:17;;;;;;;19.30;8.00;;;;;;;-3.43;70.39;100322.61;1725821;82;25667;-48
2021/01/15 10:06:45;;;;;;;14.93;7.67;;;;;;;-3.39;69.71;100320.66;1726300;82;26758;-50
2021/01/15 10:09:14;;;;;;;14.40;7.83;;;;;;;-3.42;68.77;100309.17;1726078;82;25740;-48
2021/01/15 10:11:45;;;;;;;16.48;8.25;;;;;;;-3.42;69.94;100313.14;1726269;82;25702;-50
2021/01/15 10:14:19;;;;;;;15.38;8.25;;;;;;;-3.34;69.35;100312.57;1725881;82;25671;-51
2021/01/15 10:16:49;;;;;;;14.58;7.47;;;;;;;-3.29;70.06;100311.41;1742809;80;25253;-52
2021/01/15 10:19:19;;;;;;;15.28;8.38;;;;;;;-3.20;70.68;100306.16;1734690;80;26054;-49
2021/01/15 10:21:46;;;;;;;16.30;8.40;;;;;;;-3.09;70.30;100301.97;1749420;81;25640;-50
2021/01/15 10:24:15;;;;;;;19.15;9.18;;;;;;;-2.97;70.75;100302.86;1754565;81;25617;-52
2021/01/15 10:26:42;;;;;;;20.57;10.60;;;;;;;-2.88;69.93;100298.09;1754634;81;25694;-50
2021/01/15 10:29:13;;;;;;;20.75;10.05;;;;;;;-2.91;68.94;100290.58;1754638;81;25731;-50
2021/01/15 10:31:50;;;;;;;17.98;9.78;;;;;;;-2.94;69.10;100291.05;1754665;81;26875;-55
2021/01/15 10:34:17;;;;;;;19.82;9.10;;;;;;;-2.92;69.93;100299.05;1754415;81;25642;-46
2021/01/15 10:36:46;;;;;;;19.00;10.13;;;;;;;-2.76;70.44;100313.53;1754448;81;25597;-55
2021/01/15 10:39:14;;;;;;;19.93;9.67;;;;;;;-2.66;70.43;100319.64;1754718;81;25641;-46
2021/01/15 10:41:44;;;;;;;21.45;10.60;;;;;;;-2.55;70.16;100314.95;1754420;81;25640;-53
2021/01/15 10:44:16;;;;;;;17.92;10.10;;;;;;;-2.45;69.76;100324.51;1754559;81;25698;-56
2021/01/15 10:46:46;;;;;;;23.15;11.15;;;;;;;-2.38;69.06;100327.58;1754575;81;26289;-50
2021/01/15 10:49:15;;;;;;;20.70;10.45;;;;;;;-2.35;68.81;100328.46;1754613;81;26301;-52
2021/01/15 10:51:45;;;;;;;19.77;10.95;;;;;;;-2.31;69.21;100332.30;1754745;81;25610;-55
2021/01/15 10:54:12;;;;;;;18.87;10.23;;;;;;;-2.31;68.64;100321.17;1754362;81;25743;-57
2021/01/15 10:56:44;;;;;;;24.60;11.83;;;;;;;-2.32;68.51;100326.70;1754548;81;25699;-55
2021/01/15 10:59:11;;;;;;;21.17;11.25;;;;;;;-2.37;67.02;100318.08;1753611;81;25700;-47
2021/01/15 11:01:46;;;;;;;18.82;10.60;;;;;;;-2.38;68.41;100321.78;1754534;81;25754;-49
2021/01/15 11:04:16;;;;;;;21.52;11.68;;;;;;;-2.38;67.90;100316.98;1754518;81;25662;-49
2021/01/15 11:06:46;;;;;;;25.08;11.70;;;;;;;-2.46;67.53;100314.93;1754839;81;25378;-52
2021/01/15 11:09:16;;;;;;;21.65;11.63;;;;;;;-2.55;67.19;100304.87;1754638;81;25978;-52
2021/01/15 11:11:50;;;;;;;23.67;11.70;;;;;;;-2.57;67.38;100302.94;1754394;81;25711;-57
2021/01/15 11:14:20;;;;;;;19.60;10.98;;;;;;;-2.58;66.99;100305.31;1753756;81;25688;-55
2021/01/15 11:16:47;;;;;;;26.23;11.08;;;;;;;-2.63;67.18;100298.83;1754426;81;25626;-56
2021/01/15 11:19:15;;;;;;;24.55;11.70;;;;;;;-2.70;67.43;100292.00;1754658;81;25637;-53
2021/01/15 11:21:43;;;;;;;24.47;12.18;;;;;;;-2.76;67.48;100287.05;1752281;81;26143;-50
2021/01/15 11:24:11;;;;;;;24.02;12.37;;;;;;;-2.78;66.89;100287.80;1750583;81;25735;-57
2021/01/15 11:26:38;;;;;;;25.00;11.48;;;;;;;-2.88;66.71;100288.83;1750600;81;26113;-55
2021/01/15 11:29:08;;;;;;;27.22;11.80;;;;;;;-2.90;67.29;100293.53;1750455;81;25920;-51
2021/01/15 11:31:34;;;;;;;;;;;;;;;-2.96;66.77;100282.48;1753201;81;25828;-53
2021/01/15 11:34:03;;;;;;;20.97;10.15;;;;;;;-3.00;67.01;100286.09;1750530;81;26294;-54